Latest Coastal Weather Observations for Mackay

IDQ60701

Issued at 4:13 pm EST Saturday 13 April 2024 (issued every 10 minutes, with the page automatically refreshed every 10 minutes)

About coastal observations | Map of coastal stations | Coastal observations for QLD | Marine services | Other Formats
Station Details ID: 033119 Name: MACKAY M.O Lat: -21.12 Lon: 149.22 Height: 30.26 m
Data from the previous 72 hours. | See also: Recent months at Mackay
Date/Time
EST
Wind Sea
Height
m
Swell Vis
km
Cloud Weather Temp
°C
Press
MSL
hPa
Rain since
9am
mm
Dir  Spd
kts
Gust
kts
Height
m
Period
s
Dir
13/04:00pm ESE 8 14 - - - - - Partly cloudy - 26.8 1016.6 0.0
13/03:30pm ESE 8 14 - - - - - Partly cloudy - 26.8 1016.4 0.0
13/03:00pm ESE 9 14 - - - - - Mostly clear - 27.0 1016.4 0.0
13/02:30pm ESE 10 17 - - - - - Partly cloudy - 27.2 1016.4 0.0
13/02:00pm SE 9 15 - - - - - Partly cloudy - 27.5 1016.5 0.0
13/01:30pm SE 10 19 - - - - - Partly cloudy - 27.6 1016.7 0.0
13/01:00pm SE 11 17 - - - - - Partly cloudy - 27.5 1016.8 0.0
13/12:30pm SE 11 18 - - - - - - - 27.8 1017.1 0.0
13/12:00pm SE 9 17 - - - - - Mostly clear - 27.4 1017.4 0.0
13/11:30am ESE 11 18 - - - - - Partly cloudy - 27.0 1017.7 0.0
13/11:00am SSE 11 16 - - - - - Partly cloudy - 25.4 1017.9 0.0
13/10:30am SSE 11 17 - - - - - Partly cloudy - 25.2 1018.1 0.0
13/10:24am SSE 11 19 - - - - - Partly cloudy - 25.4 1018.1 0.0
13/10:04am SSE 10 16 - - - - - Partly cloudy - 25.5 1018.1 0.0
13/10:00am SSE 10 16 - - - - - Partly cloudy - 25.7 1018.1 0.0
13/09:30am SSE 9 15 - - - - - Partly cloudy - 25.6 1018.1 0.0
13/09:00am S 10 14 - - - - - Cloudy - 24.6 1017.9 2.4
13/08:30am S 10 15 - - - - - Partly cloudy - 23.2 1017.7 2.4
13/08:00am S 11 17 - - - - - Partly cloudy - 22.4 1017.3 2.4
13/07:30am S 11 17 - - - - - Partly cloudy - 22.2 1017.0 2.4
13/07:00am S 10 15 - - - - - Partly cloudy - 21.7 1016.7 2.4
13/06:30am SSE 11 19 - - - - - Partly cloudy - 21.6 1016.4 2.4
13/06:00am S 10 16 - - - - - Cloudy Recent precip. 21.5 1016.3 1.6
13/05:30am S 10 14 - - - - - Partly cloudy - 21.5 1016.0 1.6
13/05:00am S 11 16 - - - - - Partly cloudy - 22.3 1015.9 1.4
13/04:30am S 9 14 - - - - - Partly cloudy - 22.3 1015.8 1.4
13/04:00am SE 10 16 - - - - - Partly cloudy - 24.7 1015.5 1.4
13/03:30am SE 8 13 - - - - - Partly cloudy - 24.6 1015.6 1.4
13/03:00am ESE 9 16 - - - - - Mostly cloudy - 24.7 1015.6 1.4
13/02:30am SE 11 17 - - - - - Partly cloudy - 24.2 1015.5 1.4
13/02:00am E 9 15 - - - - - Partly cloudy - 24.6 1015.6 1.4
13/01:30am ESE 10 16 - - - - - Partly cloudy - 24.4 1015.8 1.4
13/01:00am ESE 9 16 - - - - - Partly cloudy - 24.5 1015.9 1.4
13/12:30am ESE 11 21 - - - - - Partly cloudy - 24.2 1016.2 1.4
13/12:00am SE 10 17 - - - - - Cloudy Recent precip. 23.4 1016.4 1.4
 
Date/Time
EST
Wind Sea
Height
m
Swell Vis
km
Cloud Weather Temp
°C
Press
MSL
hPa
Rain since
9am
mm
Dir  Spd
kts
Gust
kts
Height
m
Period
s
Dir
12/11:30pm SE 11 22 - - - - - Partly cloudy - 22.4 1016.5 1.4
12/11:00pm SSE 11 19 - - - - - Partly cloudy - 24.1 1016.4 0.0
12/10:30pm SSE 5 9 - - - - - Cloudy - 22.7 1016.7 0.0
12/10:00pm ESE 9 17 - - - - - Cloudy - 22.8 1016.9 0.0
12/09:30pm ESE 10 16 - - - - - Partly cloudy - 24.0 1016.9 0.0
12/09:00pm ESE 12 19 - - - - - Mostly cloudy - 24.0 1017.1 0.0
12/08:30pm SE 11 17 - - - - - Partly cloudy - 24.8 1016.9 0.0
12/08:00pm ESE 11 18 - - - - - Partly cloudy - 24.5 1016.7 0.0
12/07:30pm SE 9 16 - - - - - Partly cloudy - 24.7 1016.2 0.0
12/07:00pm SE 10 17 - - - - - Partly cloudy - 24.8 1015.7 0.0
12/06:30pm SE 9 16 - - - - - Partly cloudy - 25.0 1015.4 0.0
12/06:00pm SSE 9 14 - - - - - Partly cloudy - 24.8 1015.2 0.0
12/05:30pm SSE 8 13 - - - - - - - 24.9 1015.0 0.0
12/05:00pm SSE 9 15 - - - - - - - 25.5 1014.8 0.0
12/04:30pm SSE 9 16 - - - - - - - 25.8 1014.6 0.0
12/04:00pm SE 9 15 - - - - - Partly cloudy - 26.2 1014.3 0.0
12/03:30pm SSE 11 18 - - - - - - - 26.3 1014.1 0.0
12/03:00pm SSE 11 17 - - - - - - - 26.9 1014.1 0.0
12/02:30pm SSE 10 17 - - - - - Partly cloudy - 27.0 1014.2 0.0
12/02:00pm SE 9 14 - - - - - - - 27.4 1014.4 0.0
12/01:30pm SE 10 17 - - - - - - - 27.2 1014.7 0.0
12/01:00pm SE 11 19 - - - - - - - 27.0 1014.8 0.0
12/12:30pm SE 12 18 - - - - - Partly cloudy - 27.0 1015.1 0.0
12/12:00pm SSE 12 20 - - - - - Partly cloudy - 26.8 1015.4 0.0
12/11:30am SSE 13 21 - - - - - Partly cloudy - 25.2 1015.8 0.0
12/11:00am SSE 13 22 - - - - - Partly cloudy - 25.1 1016.1 0.0
12/10:30am SSE 13 21 - - - - - Partly cloudy - 23.7 1016.3 0.0
12/10:17am SSE 13 20 - - - - - Partly cloudy - 22.8 1016.5 0.0
12/10:00am S 5 9 - - - - - Partly cloudy - 21.2 1016.8 0.0
12/09:30am NW 5 7 - - - - - Partly cloudy - 20.1 1016.7 0.0
12/09:00am SW 5 6 - - - - - Cloudy Recent precip. 20.1 1016.5 0.4
12/08:30am SSW 5 7 - - - - - Partly cloudy - 20.2 1016.4 0.0
12/08:00am SSW 6 8 - - - - - Partly cloudy - 19.6 1016.0 0.0
12/07:30am SSW 7 9 - - - - - Partly cloudy - 19.3 1015.3 0.0
12/07:00am SSW 7 9 - - - - - Partly cloudy - 18.2 1015.2 0.0
12/06:30am SW 8 11 - - - - - Partly cloudy - 17.7 1014.8 0.0
12/06:00am SW 7 10 - - - - - Cloudy - 17.7 1014.5 0.0
12/05:30am SW 7 9 - - - - - Partly cloudy - 17.3 1014.4 0.0
12/05:00am SW 7 9 - - - - - - - 17.4 1014.3 0.0
12/04:30am SW 7 9 - - - - - - - 17.4 1014.3 0.0
12/04:00am SW 7 9 - - - - - - - 17.4 1014.3 0.0
12/03:30am SW 7 9 - - - - - - - 17.5 1014.5 0.0
12/03:00am SW 6 7 - - - - - - - 17.8 1014.6 0.0
12/02:30am SW 6 8 - - - - - - - 18.0 1014.7 0.0
12/02:00am SW 7 9 - - - - - - - 18.1 1014.9 0.0
12/01:30am SW 7 8 - - - - - - - 18.2 1015.1 0.0
12/01:00am SW 7 11 - - - - - - - 18.6 1015.4 0.0
12/12:30am SW 7 9 - - - - - - - 18.8 1015.8 0.0
12/12:00am SW 7 9 - - - - - - - 18.6 1015.9 0.0
 
Date/Time
EST
Wind Sea
Height
m
Swell Vis
km
Cloud Weather Temp
°C
Press
MSL
hPa
Rain since
9am
mm
Dir  Spd
kts
Gust
kts
Height
m
Period
s
Dir
11/11:30pm SW 7 8 - - - - - - - 19.1 1016.0 0.0
11/11:00pm SW 7 9 - - - - - - - 19.4 1015.9 0.0
11/10:30pm SW 6 8 - - - - - - - 19.9 1015.9 0.0
11/10:00pm SSW 6 7 - - - - - - - 20.5 1016.0 0.0
11/09:30pm SSW 5 7 - - - - - - - 20.8 1016.2 0.0
11/09:00pm S 5 7 - - - - - - - 22.0 1016.3 0.0
11/08:30pm SSE 6 11 - - - - - - - 23.6 1016.2 0.0
11/08:00pm SE 7 11 - - - - - - - 23.6 1015.9 0.0
11/07:30pm SSE 6 11 - - - - - - - 23.6 1015.6 0.0
11/07:00pm SSE 7 11 - - - - - - - 23.5 1015.2 0.0
11/06:30pm SE 7 12 - - - - - - - 23.6 1015.0 0.0
11/06:00pm SE 7 11 - - - - - - - 23.5 1014.7 0.0
11/05:30pm SE 8 13 - - - - - - - 23.6 1014.5 0.0
11/05:00pm SE 9 14 - - - - - - - 24.2 1014.3 0.0
11/04:30pm SSE 7 12 - - - - - Partly cloudy - 24.9 1014.0 0.0
11/04:00pm SSE 7 12 - - - - - - - 25.2 1013.8 0.0
11/03:30pm SE 8 11 - - - - - - - 25.3 1013.7 0.0
11/03:00pm SE 8 13 - - - - - - - 25.9 1013.5 0.0
11/02:30pm SSE 7 11 - - - - - - - 26.2 1013.7 0.0
11/02:00pm SE 7 13 - - - - - - - 26.0 1014.0 0.0
11/01:30pm SE 8 12 - - - - - - - 25.8 1014.3 0.0
11/01:00pm SE 7 12 - - - - - - - 25.8 1014.5 0.0
11/12:30pm SSE 7 12 - - - - - - - 25.6 1014.9 0.0
11/12:00pm SSE 7 10 - - - - - - - 25.2 1015.4 0.0
11/11:30am SSE 7 11 - - - - - - - 24.9 1015.9 0.0
11/11:00am SSE 7 13 - - - - - - - 24.6 1016.2 0.0
11/10:30am S 6 12 - - - - - - - 24.2 1016.5 0.0
11/10:00am S 6 11 - - - - - - - 23.9 1016.6 0.0
11/09:30am S 11 15 - - - - - - - 22.6 1016.4 0.0
11/09:00am SSW 8 12 - - - - - - - 21.4 1016.3 0.0
11/08:30am S 9 13 - - - - - - - 19.9 1016.1 0.0
11/08:00am SSW 7 11 - - - - - - - 18.4 1015.8 0.0
11/07:30am SW 7 9 - - - - - - - 16.7 1015.5 0.0
11/07:00am SW 7 10 - - - - - - - 15.9 1015.3 0.0
11/06:30am SW 7 9 - - - - - - - 15.5 1014.9 0.0
11/06:00am SW 7 10 - - - - - - - 15.5 1014.7 0.0
11/05:30am SSW 7 8 - - - - - - - 16.0 1014.5 0.0
11/05:00am SSW 8 11 - - - - - - - 16.6 1014.3 0.0
11/04:30am SSW 8 11 - - - - - - - 17.5 1014.1 0.0
11/04:00am S 9 15 - - - - - - - 18.9 1013.8 0.0
11/03:30am S 11 17 - - - - - - - 19.9 1013.8 0.0
11/03:00am S 13 19 - - - - - - - 20.1 1013.6 0.0
11/02:30am S 11 19 - - - - - - - 20.2 1013.8 0.0
11/02:00am S 11 16 - - - - - - - 20.6 1014.0 0.0
11/01:30am S 12 18 - - - - - - - 21.0 1014.1 0.0
11/01:00am S 10 15 - - - - - - - 21.0 1014.4 0.0
11/12:30am S 11 16 - - - - - - - 21.3 1014.6 0.0
11/12:00am S 11 15 - - - - - - - 21.2 1014.7 0.0
 
Date/Time
EST
Wind Sea
Height
m
Swell Vis
km
Cloud Weather Temp
°C
Press
MSL
hPa
Rain since
9am
mm
Dir  Spd
kts
Gust
kts
Height
m
Period
s
Dir
10/11:30pm S 10 16 - - - - - - - 22.1 1014.7 0.0
10/11:00pm S 10 15 - - - - - - - 20.5 1014.9 0.0
10/10:30pm SSW 6 8 - - - - - - - 18.9 1015.1 0.0
10/10:00pm SSW 7 9 - - - - - - - 18.9 1015.1 0.0
10/09:30pm WSW 7 9 - - - - - - - 19.1 1014.8 0.0
10/09:00pm WSW 6 7 - - - - - - - 20.3 1014.8 0.0
10/08:30pm WSW 5 7 - - - - - - - 21.6 1014.3 0.0
10/08:00pm S 4 6 - - - - - - - 21.9 1013.7 0.0
10/07:30pm SSE 4 6 - - - - - - - 22.6 1013.1 0.0
10/07:00pm SE 4 5 - - - - - - - 23.7 1012.4 0.0
10/06:30pm SE 4 6 - - - - - - - 23.7 1012.1 0.0
10/06:00pm SE 6 8 - - - - - - - 24.0 1011.7 0.0
10/05:30pm SE 5 9 - - - - - - - 24.5 1011.5 0.0
10/05:00pm SE 6 11 - - - - - - - 25.1 1011.4 0.0
10/04:30pm SE 7 12 - - - - - - - 25.4 1011.2 0.0

Other formats

Comma delimited format used in spreadsheet applications
http://www.bom.gov.au/fwo/IDQ60701/IDQ60701.94367.axf

JavaScript Object Notation format (JSON) in row-major order
http://www.bom.gov.au/fwo/IDQ60701/IDQ60701.94367.json

Data quality

Most of these data are generated automatically and are frequently updated. Quality checks on data are not normally performed. It is possible for incorrect values to appear. Refer to information at About Latest Weather Observations and please check the disclaimer before using these data.